Time;durP1;ratioP1;P1;durP2;ratioP2;P2;SDS_P1;SDS_P2;PMS_P1;PMS_P2;Temp;Humidity;BMP_temperature;BMP_pressure;BME280_temperature;BME280_humidity;BME280_pressure;Samples;Min_cycle;Max_cycle;Signal;HPM_P1;HPM_P2
2022/05/28 00:00:19;;;;;;;;;1.50;1.00;;;;;10.91;58.21;100313.19;5037341;28;8967;-63
2022/05/28 00:02:46;;;;;;;;;0.00;0.00;;;;;10.90;58.46;100311.50;5038155;28;8991;-64
2022/05/28 00:05:14;;;;;;;;;2.75;2.50;;;;;10.88;58.25;100313.44;5038256;28;8951;-68
2022/05/28 00:07:42;;;;;;;;;0.75;0.00;;;;;10.87;58.20;100308.22;5036479;28;8919;-63
2022/05/28 00:10:10;;;;;;;;;1.00;1.00;;;;;10.86;58.44;100301.19;5036164;28;8833;-64
2022/05/28 00:12:38;;;;;;;;;0.00;0.00;;;;;10.83;58.44;100294.28;5037248;28;8845;-63
2022/05/28 00:15:06;;;;;;;;;1.00;1.00;;;;;10.84;58.63;100295.13;5037471;28;8875;-63
2022/05/28 00:17:34;;;;;;;;;1.50;0.50;;;;;10.81;58.66;100296.22;5037598;28;8832;-63
2022/05/28 00:20:03;;;;;;;;;0.75;0.25;;;;;10.80;58.80;100299.84;5036107;28;8844;-64
2022/05/28 00:22:31;;;;;;;;;1.00;0.00;;;;;10.77;58.49;100296.56;5036852;28;8852;-63
2022/05/28 00:24:58;;;;;;;;;0.50;0.50;;;;;10.75;58.75;100299.31;5037212;28;8858;-64
2022/05/28 00:27:26;;;;;;;;;0.25;0.25;;;;;10.73;58.75;100300.41;5037730;28;8854;-64
2022/05/28 00:29:54;;;;;;;;;0.00;0.00;;;;;10.71;58.95;100292.50;5054539;28;8849;-65
2022/05/28 00:32:21;;;;;;;;;0.75;0.75;;;;;10.71;59.14;100292.50;5055614;28;8847;-63
2022/05/28 00:34:49;;;;;;;;;0.00;0.00;;;;;10.70;59.30;100298.81;5056948;28;8848;-63
2022/05/28 00:37:17;;;;;;;;;0.00;0.00;;;;;10.70;58.95;100288.16;5057370;28;8830;-64
2022/05/28 00:39:45;;;;;;;;;0.75;0.75;;;;;10.69;59.22;100289.13;5056897;28;8953;-64
2022/05/28 00:42:13;;;;;;;;;0.50;0.50;;;;;10.71;59.06;100289.84;5057087;28;8864;-64
2022/05/28 00:44:40;;;;;;;;;1.00;1.00;;;;;10.74;59.10;100284.31;5057053;28;8972;-63
2022/05/28 00:47:08;;;;;;;;;0.00;0.00;;;;;10.80;59.07;100283.84;5057410;28;8854;-64
2022/05/28 00:49:36;;;;;;;;;0.75;0.75;;;;;10.85;59.27;100287.00;5057479;28;8853;-64
2022/05/28 00:52:04;;;;;;;;;0.00;0.00;;;;;10.86;59.13;100279.88;5057549;28;8841;-63
2022/05/28 00:54:32;;;;;;;;;1.00;1.00;;;;;10.84;59.46;100285.31;5054005;28;8868;-64
2022/05/28 00:57:00;;;;;;;;;0.00;0.00;;;;;10.81;59.37;100280.22;5037200;28;8866;-63
2022/05/28 00:59:28;;;;;;;;;0.25;0.00;;;;;10.79;59.66;100275.97;5037509;28;8836;-63
2022/05/28 01:01:56;;;;;;;;;0.50;0.50;;;;;10.75;59.46;100272.69;5036654;28;8910;-64
2022/05/28 01:04:24;;;;;;;;;3.75;0.00;;;;;10.73;59.43;100271.97;5036099;28;8836;-64
2022/05/28 01:06:51;;;;;;;;;3.50;3.00;;;;;10.71;59.86;100271.22;5036494;28;9516;-64
2022/05/28 01:09:19;;;;;;;;;1.00;0.00;;;;;10.68;59.96;100267.91;5036003;28;8863;-64
2022/05/28 01:11:47;;;;;;;;;2.50;2.50;;;;;10.66;59.89;100265.41;5036116;28;8832;-63
2022/05/28 01:14:15;;;;;;;;;0.75;0.25;;;;;10.65;59.97;100258.38;5036687;28;8856;-64
2022/05/28 01:16:43;;;;;;;;;2.00;2.00;;;;;10.64;60.23;100256.69;5036598;28;9498;-65
2022/05/28 01:19:11;;;;;;;;;0.50;0.50;;;;;10.64;60.17;100262.00;5036899;28;8851;-64
2022/05/28 01:21:38;;;;;;;;;2.50;2.50;;;;;10.62;60.37;100258.59;5036134;28;8824;-65
2022/05/28 01:24:06;;;;;;;;;2.00;1.00;;;;;10.62;60.12;100260.41;5036382;28;9530;-64
2022/05/28 01:26:34;;;;;;;;;1.00;1.00;;;;;10.62;60.24;100263.91;5055454;28;8868;-64
2022/05/28 01:29:02;;;;;;;;;3.25;1.00;;;;;10.62;60.23;100253.25;5056862;28;8892;-64
2022/05/28 01:31:29;;;;;;;;;0.00;0.00;;;;;10.61;60.40;100246.25;5056149;28;8845;-64
2022/05/28 01:33:57;;;;;;;;;1.50;1.00;;;;;10.59;60.86;100248.16;5056594;28;8838;-64
2022/05/28 01:36:25;;;;;;;;;3.00;3.00;;;;;10.57;60.64;100250.13;5054234;28;8834;-65
2022/05/28 01:38:53;;;;;;;;;1.00;0.75;;;;;10.57;60.64;100252.78;5056193;28;8846;-64
2022/05/28 01:41:20;;;;;;;;;1.50;0.50;;;;;10.57;60.42;100249.25;5055841;28;8845;-64
2022/05/28 01:43:48;;;;;;;;;0.00;0.00;;;;;10.55;60.37;100249.34;5055960;28;8862;-65
2022/05/28 01:46:16;;;;;;;;;1.00;1.00;;;;;10.56;60.54;100248.38;5055873;28;8832;-64
2022/05/28 01:48:44;;;;;;;;;3.00;2.50;;;;;10.56;60.51;100259.03;5056069;28;8826;-64
2022/05/28 01:51:12;;;;;;;;;1.00;1.00;;;;;10.55;60.62;100252.00;5056044;28;8870;-64
2022/05/28 01:56:25;;;;;;;;;3.00;1.00;;;;;10.55;60.93;100257.34;5036415;28;8922;-63
2022/05/28 01:58:53;;;;;;;;;1.50;1.50;;;;;10.59;60.41;100250.84;5035067;28;8876;-64
2022/05/28 02:01:21;;;;;;;;;1.00;1.00;;;;;10.63;60.62;100254.94;5035804;28;8933;-64
2022/05/28 02:03:48;;;;;;;;;0.00;0.00;;;;;10.70;60.17;100252.69;5036001;28;8837;-63
2022/05/28 02:06:16;;;;;;;;;2.00;1.00;;;;;10.74;60.07;100248.81;5035906;28;8865;-63
2022/05/28 02:08:44;;;;;;;;;3.00;3.00;;;;;10.80;60.44;100249.22;5035427;28;8852;-64
2022/05/28 02:11:12;;;;;;;;;1.50;1.50;;;;;10.85;60.05;100249.72;5035972;28;8833;-64
2022/05/28 02:13:40;;;;;;;;;1.00;1.00;;;;;10.87;60.10;100237.16;5035663;28;8868;-64
2022/05/28 02:16:08;;;;;;;;;0.00;0.00;;;;;10.89;59.94;100240.53;5036154;28;8840;-64
2022/05/28 02:18:35;;;;;;;;;0.00;0.00;;;;;10.88;60.03;100240.66;5035734;28;8852;-68
2022/05/28 02:21:03;;;;;;;;;1.00;1.00;;;;;10.85;60.02;100232.91;5035748;28;8929;-64
2022/05/28 02:23:31;;;;;;;;;0.00;0.00;;;;;10.84;60.28;100232.03;5035974;28;8852;-63
2022/05/28 02:25:59;;;;;;;;;1.50;1.50;;;;;10.80;60.41;100235.91;5049550;28;8852;-64
2022/05/28 02:28:26;;;;;;;;;3.00;1.00;;;;;10.77;60.60;100225.47;5055367;28;8838;-64
2022/05/28 02:30:56;;;;;;;;;1.00;0.00;;;;;10.77;60.43;100235.28;5055597;28;8868;-64
2022/05/28 02:33:24;;;;;;;;;3.25;1.00;;;;;10.75;60.93;100234.53;5055776;28;9072;-63
2022/05/28 02:35:51;;;;;;;;;2.50;2.50;;;;;10.73;60.85;100234.69;5055400;28;8838;-63
2022/05/28 02:38:19;;;;;;;;;1.50;1.50;;;;;10.71;60.96;100231.25;5055431;28;8864;-63
2022/05/28 02:40:47;;;;;;;;;1.50;1.00;;;;;10.70;61.48;100226.06;5055476;28;8842;-63
2022/05/28 02:43:15;;;;;;;;;4.00;3.00;;;;;10.67;61.15;100228.94;5055560;28;8854;-63
2022/05/28 02:45:43;;;;;;;;;0.50;0.00;;;;;10.62;61.38;100221.31;5055109;28;8830;-63
2022/05/28 02:48:10;;;;;;;;;1.00;1.00;;;;;10.61;61.76;100224.94;5055755;28;8838;-63
2022/05/28 02:50:38;;;;;;;;;2.00;2.00;;;;;10.59;61.41;100226.00;5055167;28;9488;-63
2022/05/28 02:53:06;;;;;;;;;0.50;0.00;;;;;10.57;61.34;100218.16;5055184;28;8864;-63
2022/05/28 02:55:34;;;;;;;;;1.00;1.00;;;;;10.56;61.54;100221.75;5043916;28;8857;-63
2022/05/28 02:58:01;;;;;;;;;0.50;0.50;;;;;10.56;61.09;100227.09;5039414;28;8840;-63
2022/05/28 03:00:30;;;;;;;;;3.50;2.50;;;;;10.59;61.25;100221.53;5039462;28;8820;-65
2022/05/28 03:02:57;;;;;;;;;1.50;1.50;;;;;10.65;61.08;100228.22;5054140;28;8822;-63
2022/05/28 03:05:26;;;;;;;;;2.50;1.00;;;;;10.72;60.72;100222.31;5059146;28;8845;-63
2022/05/28 03:07:54;;;;;;;;;1.00;1.00;;;;;10.80;60.73;100230.59;5059101;28;8869;-63
2022/05/28 03:10:22;;;;;;;;;2.50;2.50;;;;;10.86;61.16;100224.75;5059139;28;9617;-64
2022/05/28 03:12:49;;;;;;;;;1.00;0.75;;;;;10.90;60.63;100231.56;5059086;28;8896;-63
2022/05/28 03:15:17;;;;;;;;;0.50;0.50;;;;;10.94;60.65;100222.34;5058676;28;8822;-63
2022/05/28 03:17:46;;;;;;;;;1.00;1.00;;;;;10.98;60.73;100228.31;5059309;28;8844;-63
2022/05/28 03:20:14;;;;;;;;;1.00;1.00;;;;;11.04;60.30;100223.38;5058585;28;8850;-64
2022/05/28 03:22:41;;;;;;;;;4.50;3.00;;;;;11.10;60.60;100227.38;5058884;28;8826;-63
2022/05/28 03:25:09;;;;;;;;;0.00;0.00;;;;;11.14;60.29;100224.34;5049152;28;8824;-64
2022/05/28 03:27:37;;;;;;;;;3.00;2.00;;;;;11.18;60.20;100225.81;5039337;28;9483;-63
2022/05/28 03:30:05;;;;;;;;;3.25;3.00;;;;;11.22;60.09;100227.28;5038323;28;8851;-63
2022/05/28 03:32:32;;;;;;;;;5.00;3.50;;;;;11.25;60.28;100221.72;5038712;28;8843;-63
2022/05/28 03:35:00;;;;;;;;;1.50;1.50;;;;;11.26;60.46;100228.75;5038999;28;8840;-63
2022/05/28 03:37:27;;;;;;;;;0.50;0.50;;;;;11.23;59.90;100218.31;5038842;28;8875;-63
2022/05/28 03:39:56;;;;;;;;;1.00;1.00;;;;;11.18;60.38;100217.84;5038468;28;8845;-63
2022/05/28 03:42:24;;;;;;;;;0.50;0.50;;;;;11.15;60.68;100225.22;5037244;28;8825;-63
2022/05/28 03:44:52;;;;;;;;;1.00;1.00;;;;;11.11;60.60;100224.59;5038404;28;8832;-63
2022/05/28 03:47:19;;;;;;;;;1.00;1.00;;;;;11.09;60.67;100223.84;5038295;28;8833;-63
2022/05/28 03:49:47;;;;;;;;;2.50;2.50;;;;;11.09;60.64;100225.69;5038068;28;8844;-63
2022/05/28 03:52:15;;;;;;;;;1.00;1.00;;;;;11.09;61.04;100229.19;5038403;28;8836;-64
2022/05/28 03:54:44;;;;;;;;;3.50;3.00;;;;;11.12;60.27;100225.44;5044929;28;8822;-63
2022/05/28 03:57:12;;;;;;;;;1.00;1.00;;;;;11.17;60.49;100221.47;5057303;28;8834;-63
2022/05/28 03:59:40;;;;;;;;;2.00;2.00;;;;;11.23;60.34;100228.97;5058281;28;8846;-63
2022/05/28 04:02:07;;;;;;;;;1.00;1.00;;;;;11.29;60.24;100233.81;5058020;28;8842;-64
2022/05/28 04:04:35;;;;;;;;;1.00;1.00;;;;;11.34;60.13;100237.00;5056857;28;8854;-63
2022/05/28 04:07:03;;;;;;;;;0.00;0.00;;;;;11.40;60.17;100231.19;5056629;28;8922;-65
2022/05/28 04:09:31;;;;;;;;;0.00;0.00;;;;;11.45;60.22;100229.00;5057208;28;8931;-64
2022/05/28 04:11:58;;;;;;;;;3.50;2.00;;;;;11.51;60.10;100228.50;5056653;28;8840;-63
2022/05/28 04:14:26;;;;;;;;;0.25;0.25;;;;;11.58;59.58;100231.56;5057044;28;8850;-63
2022/05/28 04:16:54;;;;;;;;;0.00;0.00;;;;;11.63;59.33;100237.41;5056978;28;8835;-63
2022/05/28 04:19:21;;;;;;;;;0.00;0.00;;;;;11.66;59.48;100231.81;5056992;28;8830;-63
2022/05/28 04:21:50;;;;;;;;;1.50;1.50;;;;;11.73;59.74;100238.34;5057708;28;8838;-63
2022/05/28 04:24:17;;;;;;;;;1.75;1.50;;;;;11.79;59.79;100230.72;5052936;28;8829;-63
2022/05/28 04:26:45;;;;;;;;;3.50;1.50;;;;;11.85;59.61;100237.38;5037564;28;8852;-63
2022/05/28 04:29:12;;;;;;;;;3.00;1.00;;;;;11.90;59.23;100235.22;5037853;28;8840;-64
2022/05/28 04:31:40;;;;;;;;;4.00;1.00;;;;;11.97;59.48;100239.91;5037586;28;8958;-64
2022/05/28 04:34:08;;;;;;;;;7.00;3.00;;;;;12.04;59.43;100246.47;5037052;28;8833;-64
2022/05/28 04:36:36;;;;;;;;;1.00;1.00;;;;;12.08;58.84;100242.59;5037604;28;9524;-64
2022/05/28 04:39:03;;;;;;;;;0.25;0.00;;;;;12.07;59.45;100246.22;5037507;28;8870;-64
2022/05/28 04:41:32;;;;;;;;;1.50;0.25;;;;;12.09;59.47;100249.63;5037302;28;8849;-64
2022/05/28 04:44:00;;;;;;;;;0.75;0.75;;;;;12.12;59.30;100252.03;5036107;28;8886;-64
2022/05/28 04:46:27;;;;;;;;;1.00;1.00;;;;;12.14;59.14;100260.75;5036799;28;8836;-64
2022/05/28 04:48:55;;;;;;;;;2.50;2.50;;;;;12.15;59.03;100255.28;5036642;28;8872;-64
2022/05/28 04:51:23;;;;;;;;;3.00;3.00;;;;;12.20;59.08;100254.91;5036955;28;8844;-63
2022/05/28 04:53:51;;;;;;;;;2.00;2.00;;;;;12.30;59.10;100255.88;5038577;28;8810;-64
2022/05/28 04:56:18;;;;;;;;;2.50;2.50;;;;;12.48;58.72;100262.38;5036102;28;8829;-63
2022/05/28 04:58:48;;;;;;;;;0.00;0.00;;;;;12.58;58.43;100263.31;5037248;28;8833;-63
2022/05/28 05:01:16;;;;;;;;;2.00;1.00;;;;;12.62;58.41;100260.25;5036553;28;8890;-64
2022/05/28 05:03:44;;;;;;;;;2.00;1.00;;;;;12.63;58.20;100261.97;5036986;28;8852;-64
2022/05/28 05:06:11;;;;;;;;;3.25;3.25;;;;;12.68;58.12;100262.41;5036590;28;8916;-63
2022/05/28 05:08:43;;;;;;;;;3.00;1.50;;;;;12.80;58.18;100265.88;5035783;28;8832;-63
2022/05/28 05:11:11;;;;;;;;;1.50;1.00;;;;;12.93;58.26;100256.72;5035152;28;8834;-63
2022/05/28 05:13:38;;;;;;;;;1.00;1.00;;;;;13.02;57.96;100265.81;5036269;28;8864;-65
2022/05/28 05:16:06;;;;;;;;;1.00;1.00;;;;;13.04;58.32;100258.50;5035696;28;8852;-64
2022/05/28 05:18:33;;;;;;;;;0.50;0.00;;;;;13.00;58.42;100263.28;5035313;28;8884;-64
2022/05/28 05:21:02;;;;;;;;;1.00;1.00;;;;;13.00;58.63;100267.78;5036794;28;8943;-64
2022/05/28 05:23:29;;;;;;;;;2.25;2.00;;;;;12.94;58.92;100278.94;5036306;28;8851;-64
2022/05/28 05:25:57;;;;;;;;;1.00;1.00;;;;;12.96;58.52;100271.69;5036041;28;9518;-63
2022/05/28 05:28:25;;;;;;;;;1.00;1.00;;;;;13.06;58.29;100275.28;5036477;28;8865;-63
2022/05/28 05:30:52;;;;;;;;;1.00;1.00;;;;;13.13;58.39;100284.50;5035769;28;8840;-63
2022/05/28 05:33:20;;;;;;;;;2.50;2.50;;;;;13.24;58.06;100276.41;5036055;28;8875;-64
2022/05/28 05:35:48;;;;;;;;;1.00;1.00;;;;;13.30;58.29;100270.53;5036588;28;8844;-63
2022/05/28 05:38:15;;;;;;;;;1.00;1.00;;;;;13.34;58.02;100290.66;5036249;28;8880;-63
2022/05/28 05:40:44;;;;;;;;;0.00;0.00;;;;;13.28;58.38;100283.19;5036148;28;8824;-63
2022/05/28 05:43:11;;;;;;;;;1.00;0.50;;;;;13.23;58.81;100286.22;5035607;28;8857;-63
2022/05/28 05:45:39;;;;;;;;;1.00;0.25;;;;;13.24;58.10;100287.09;5035500;28;9510;-63
2022/05/28 05:48:07;;;;;;;;;4.00;2.00;;;;;13.26;58.74;100295.81;5035814;28;8840;-63
2022/05/28 05:50:35;;;;;;;;;0.75;0.75;;;;;13.27;58.42;100286.81;5040704;28;8854;-64
2022/05/28 05:53:02;;;;;;;;;3.50;1.00;;;;;13.25;58.71;100286.13;5054499;28;8840;-63
2022/05/28 05:55:30;;;;;;;;;0.50;0.50;;;;;13.26;58.88;100287.81;5054538;28;8834;-63
2022/05/28 05:57:58;;;;;;;;;3.50;2.00;;;;;13.30;58.69;100291.94;5053639;28;8844;-64
2022/05/28 06:00:26;;;;;;;;;1.75;0.75;;;;;13.39;58.21;100300.03;5053086;28;8862;-64
2022/05/28 06:02:53;;;;;;;;;0.75;0.75;;;;;13.41;58.46;100294.53;5053047;28;8846;-64
2022/05/28 06:05:21;;;;;;;;;0.75;0.00;;;;;13.51;58.66;100298.13;5053444;28;8842;-66
2022/05/28 06:07:49;;;;;;;;;0.25;0.25;;;;;13.65;57.71;100284.38;5053429;28;8849;-63
2022/05/28 06:10:17;;;;;;;;;0.50;0.25;;;;;13.80;58.13;100286.56;5053386;28;8857;-63
2022/05/28 06:12:44;;;;;;;;;1.00;1.00;;;;;13.97;57.73;100285.09;5054096;28;8862;-66
2022/05/28 06:15:12;;;;;;;;;1.50;1.50;;;;;14.17;56.93;100284.19;5054678;28;8864;-64
2022/05/28 06:17:40;;;;;;;;;0.50;0.50;;;;;14.37;56.62;100283.28;5054393;28;8869;-64
2022/05/28 06:20:08;;;;;;;;;0.00;0.00;;;;;14.44;55.96;100284.44;5052860;28;8969;-63
2022/05/28 06:22:35;;;;;;;;;1.00;1.00;;;;;14.49;56.43;100279.50;5034203;28;8870;-64
2022/05/28 06:25:03;;;;;;;;;0.00;0.00;;;;;14.56;56.71;100291.38;5034480;28;8860;-64
2022/05/28 06:27:31;;;;;;;;;0.25;0.00;;;;;14.52;56.71;100290.81;5035397;28;8828;-63
2022/05/28 06:29:59;;;;;;;;;0.00;0.00;;;;;14.54;56.67;100296.88;5038593;28;8845;-63
2022/05/28 06:32:26;;;;;;;;;1.00;1.00;;;;;14.58;56.36;100297.44;5039798;28;8847;-63
2022/05/28 06:34:54;;;;;;;;;0.00;0.00;;;;;14.76;55.74;100301.13;5039960;28;8843;-66
2022/05/28 06:37:21;;;;;;;;;0.00;0.00;;;;;14.88;55.46;100308.06;5039642;28;8874;-67
2022/05/28 06:39:49;;;;;;;;;0.00;0.00;;;;;14.89;55.82;100299.88;5039952;28;8837;-65
2022/05/28 06:42:17;;;;;;;;;0.00;0.00;;;;;14.90;55.17;100300.72;5039582;28;8841;-64
2022/05/28 06:44:45;;;;;;;;;0.00;0.00;;;;;14.82;56.21;100303.25;5039283;28;8844;-64
2022/05/28 06:47:12;;;;;;;;;0.00;0.00;;;;;14.70;55.69;100305.22;5039559;28;8979;-64
2022/05/28 06:49:40;;;;;;;;;0.00;0.00;;;;;14.64;55.77;100300.41;5038783;28;8844;-63
2022/05/28 06:52:08;;;;;;;;;0.00;0.00;;;;;14.79;56.13;100303.53;5038874;28;9490;-64
2022/05/28 06:54:36;;;;;;;;;0.00;0.00;;;;;14.96;55.36;100302.84;5039366;28;9518;-64
2022/05/28 06:57:04;;;;;;;;;1.00;1.00;;;;;14.99;55.42;100300.72;5038950;28;8860;-64
2022/05/28 06:59:31;;;;;;;;;0.00;0.00;;;;;14.89;55.66;100294.53;5039142;28;8867;-64
2022/05/28 07:01:59;;;;;;;;;0.00;0.00;;;;;14.79;55.33;100311.59;5038794;28;8855;-64
2022/05/28 07:04:27;;;;;;;;;0.00;0.00;;;;;14.88;55.60;100303.53;5038396;28;8836;-64
2022/05/28 07:06:56;;;;;;;;;0.00;0.00;;;;;14.90;55.32;100301.56;5038947;28;8866;-64
2022/05/28 07:09:24;;;;;;;;;1.00;1.00;;;;;14.85;55.68;100303.81;5038736;28;8848;-64
2022/05/28 07:11:52;;;;;;;;;0.25;0.00;;;;;14.79;55.70;100312.41;5037819;28;8845;-64
2022/05/28 07:14:19;;;;;;;;;0.00;0.00;;;;;14.65;55.62;100307.44;5038160;28;8879;-64
2022/05/28 07:16:47;;;;;;;;;0.00;0.00;;;;;14.56;56.00;100302.09;5037626;28;8840;-64
2022/05/28 07:19:15;;;;;;;;;0.00;0.00;;;;;14.55;55.86;100308.41;5037100;28;8840;-65
2022/05/28 07:21:43;;;;;;;;;0.00;0.00;;;;;14.60;56.17;100309.72;5052865;28;8853;-64
2022/05/28 07:24:10;;;;;;;;;0.00;0.00;;;;;14.65;56.01;100307.44;5056672;28;8842;-63
2022/05/28 07:26:40;;;;;;;;;0.00;0.00;;;;;14.64;55.98;100310.28;5056358;28;8968;-64
2022/05/28 07:29:08;;;;;;;;;0.00;0.00;;;;;14.75;55.91;100311.00;5056723;28;8830;-64
2022/05/28 07:31:36;;;;;;;;;0.00;0.00;;;;;14.90;54.87;100303.41;5057309;28;8846;-63
2022/05/28 07:34:04;;;;;;;;;0.00;0.00;;;;;15.04;55.29;100306.53;5057967;28;8865;-63
2022/05/28 07:36:35;;;;;;;;;0.25;0.00;;;;;15.17;54.22;100293.66;5058359;28;8861;-64
2022/05/28 07:39:02;;;;;;;;;0.00;0.00;;;;;15.23;54.12;100297.59;5058273;28;9478;-64
2022/05/28 07:41:32;;;;;;;;;0.25;0.25;;;;;15.39;53.87;100304.09;5057332;28;8846;-68
2022/05/28 07:44:00;;;;;;;;;0.00;0.00;;;;;15.54;53.59;100307.22;5057413;28;9652;-64
2022/05/28 07:46:28;;;;;;;;;0.00;0.00;;;;;15.72;53.15;100297.41;5058310;28;8818;-63
2022/05/28 07:48:56;;;;;;;;;0.00;0.00;;;;;15.94;53.33;100297.03;5058308;28;8865;-64
2022/05/28 07:51:24;;;;;;;;;0.00;0.00;;;;;16.18;52.38;100296.34;5043464;28;8911;-63
2022/05/28 07:53:51;;;;;;;;;0.40;0.40;;;;;16.44;51.61;100294.72;5037772;28;8922;-64
2022/05/28 07:56:19;;;;;;;;;0.00;0.00;;;;;16.45;51.61;100291.03;5037862;28;8825;-63
2022/05/28 07:58:46;;;;;;;;;0.00;0.00;;;;;16.25;52.19;100300.16;5037147;28;8836;-64
2022/05/28 08:01:14;;;;;;;;;0.00;0.00;;;;;16.11;53.08;100296.25;5038035;28;8966;-67
2022/05/28 08:03:42;;;;;;;;;2.20;0.80;;;;;16.27;52.44;100294.63;5037337;28;8860;-65
2022/05/28 08:06:10;;;;;;;;;0.50;0.25;;;;;16.53;51.31;100282.19;5037056;28;8840;-64
2022/05/28 08:08:38;;;;;;;;;0.00;0.00;;;;;16.77;50.99;100285.97;5037208;28;8840;-64
2022/05/28 08:11:06;;;;;;;;;0.40;0.40;;;;;16.87;51.02;100283.22;5037337;28;8820;-64
2022/05/28 08:13:34;;;;;;;;;0.00;0.00;;;;;16.87;50.83;100292.13;5037154;28;8866;-65
2022/05/28 08:16:01;;;;;;;;;0.00;0.00;;;;;16.75;50.93;100284.44;5037514;28;8852;-64
2022/05/28 08:18:29;;;;;;;;;0.00;0.00;;;;;16.50;51.19;100286.03;5036465;28;8856;-66
2022/05/28 08:23:43;;;;;;;;;0.00;0.00;;;;;15.91;52.71;100292.81;5056675;28;8848;-64
2022/05/28 08:26:11;;;;;;;;;0.00;0.00;;;;;15.75;52.74;100300.63;5056963;28;8834;-64
2022/05/28 08:28:39;;;;;;;;;0.00;0.00;;;;;15.53;53.49;100298.28;5048615;28;8859;-64
2022/05/28 08:31:07;;;;;;;;;0.00;0.00;;;;;15.22;54.26;100302.13;5037029;28;8844;-64
2022/05/28 08:33:35;;;;;;;;;0.00;0.00;;;;;15.07;54.78;100308.91;5036671;28;8839;-64
2022/05/28 08:36:03;;;;;;;;;0.00;0.00;;;;;15.21;54.13;100305.81;5036987;28;8858;-64
2022/05/28 08:38:30;;;;;;;;;0.00;0.00;;;;;15.49;53.42;100294.19;5036918;28;8898;-64
2022/05/28 08:40:59;;;;;;;;;0.25;0.00;;;;;15.74;52.89;100292.72;5036710;28;8836;-64
2022/05/28 08:43:27;;;;;;;;;0.00;0.00;;;;;15.99;52.12;100292.09;5036091;28;8864;-64
2022/05/28 08:45:55;;;;;;;;;0.75;0.00;;;;;16.30;51.11;100287.13;5035939;28;8847;-64
2022/05/28 08:48:23;;;;;;;;;1.00;1.00;;;;;16.59;50.82;100295.03;5036499;28;8840;-64
2022/05/28 08:50:51;;;;;;;;;0.00;0.00;;;;;16.88;50.31;100277.72;5036225;28;8871;-64
2022/05/28 08:53:18;;;;;;;;;0.00;0.00;;;;;16.95;50.02;100286.00;5035107;28;8844;-65
2022/05/28 08:55:46;;;;;;;;;0.00;0.00;;;;;16.94;49.90;100295.91;5036947;28;8859;-64
2022/05/28 08:58:14;;;;;;;;;0.20;0.20;;;;;16.92;49.98;100294.34;5039623;28;8826;-64
2022/05/28 09:00:41;;;;;;;;;0.40;0.40;;;;;16.86;49.81;100293.13;5056017;28;8848;-64
2022/05/28 09:03:09;;;;;;;;;0.00;0.00;;;;;16.78;50.52;100284.97;5055886;28;8834;-64
2022/05/28 09:05:37;;;;;;;;;0.40;0.00;;;;;16.64;50.37;100290.06;5055895;28;8849;-64
2022/05/28 09:08:05;;;;;;;;;0.00;0.00;;;;;16.45;50.57;100293.72;5055774;28;8838;-64
2022/05/28 09:10:32;;;;;;;;;0.00;0.00;;;;;16.28;51.19;100291.81;5055692;28;8846;-64
2022/05/28 09:13:00;;;;;;;;;1.00;1.00;;;;;16.14;51.58;100296.81;5053733;28;8918;-63
2022/05/28 09:15:28;;;;;;;;;0.80;0.80;;;;;16.17;51.17;100295.66;5055487;28;8958;-64
2022/05/28 09:17:56;;;;;;;;;0.00;0.00;;;;;16.44;50.39;100283.97;5055678;28;8989;-63
2022/05/28 09:20:24;;;;;;;;;0.00;0.00;;;;;16.81;49.71;100282.00;5055400;28;8852;-63
2022/05/28 09:22:51;;;;;;;;;0.00;0.00;;;;;17.12;49.16;100277.91;5055379;28;8846;-63
2022/05/28 09:25:19;;;;;;;;;0.60;0.00;;;;;17.46;48.29;100281.56;5055563;28;9524;-63
2022/05/28 09:27:47;;;;;;;;;0.20;0.20;;;;;17.81;48.13;100275.22;5054801;28;8830;-63
2022/05/28 09:30:21;;;;;;;;;0.60;0.60;;;;;18.13;47.50;100272.72;5035424;28;8825;-63
2022/05/28 09:32:48;;;;;;;;;0.00;0.00;;;;;18.33;46.67;100275.03;5034969;28;8844;-64
2022/05/28 09:35:16;;;;;;;;;0.20;0.00;;;;;18.47;46.47;100274.41;5034841;28;8855;-64
2022/05/28 09:37:44;;;;;;;;;0.20;0.20;;;;;18.62;46.38;100272.75;5035504;28;8836;-63
2022/05/28 09:40:12;;;;;;;;;0.00;0.00;;;;;18.81;45.42;100264.34;5035010;28;8984;-64
2022/05/28 09:42:40;;;;;;;;;0.00;0.00;;;;;19.13;45.15;100266.25;5035416;28;8848;-65
2022/05/28 09:45:08;;;;;;;;;1.00;0.60;;;;;19.48;44.73;100269.47;5035009;28;8840;-64
2022/05/28 09:47:36;;;;;;;;;0.00;0.00;;;;;19.67;44.33;100266.41;5031367;28;8858;-65
2022/05/28 09:50:04;;;;;;;;;0.80;0.00;;;;;19.74;43.91;100258.44;5034292;28;8938;-64
2022/05/28 09:52:34;;;;;;;;;1.00;0.20;;;;;19.96;43.87;100250.44;5034466;28;8844;-64
2022/05/28 09:55:02;;;;;;;;;0.00;0.00;;;;;20.14;43.27;100248.38;5034200;28;8871;-64
2022/05/28 09:57:31;;;;;;;;;0.00;0.00;;;;;20.53;42.68;100243.78;5034571;28;8979;-64
2022/05/28 10:00:03;;;;;;;;;0.80;0.80;;;;;20.58;42.21;100248.66;5035020;28;8840;-63
2022/05/28 10:02:31;;;;;;;;;0.00;0.00;;;;;20.24;42.62;100254.41;5034245;28;8854;-64
2022/05/28 10:04:57;;;;;;;;;1.00;1.00;;;;;20.10;43.42;100244.31;5033447;28;8941;-64
2022/05/28 10:07:25;;;;;;;;;0.60;0.40;;;;;20.38;42.66;100236.59;5034521;28;8866;-64
2022/05/28 10:09:54;;;;;;;;;1.20;1.00;;;;;20.81;42.25;100240.38;5034357;28;8828;-64
2022/05/28 10:12:22;;;;;;;;;0.00;0.00;;;;;21.25;41.73;100227.88;5034243;28;8844;-64
2022/05/28 10:14:49;;;;;;;;;0.20;0.20;;;;;21.41;41.56;100226.91;5034332;28;8942;-68
2022/05/28 10:17:18;;;;;;;;;1.20;1.00;;;;;21.49;41.85;100224.94;5034669;28;8844;-64
2022/05/28 10:19:47;;;;;;;;;0.40;0.40;;;;;21.73;41.12;100223.88;5035095;28;8860;-65
2022/05/28 10:22:14;;;;;;;;;2.00;1.60;;;;;21.84;41.43;100228.81;5035367;28;8963;-64
2022/05/28 10:24:42;;;;;;;;;0.00;0.00;;;;;21.38;41.74;100227.25;5035050;28;8856;-64
2022/05/28 10:27:10;;;;;;;;;0.00;0.00;;;;;21.04;42.28;100232.31;5033781;28;9534;-64
2022/05/28 10:29:39;;;;;;;;;0.00;0.00;;;;;20.60;42.99;100231.22;5050680;28;8818;-65
2022/05/28 10:32:07;;;;;;;;;1.00;1.00;;;;;20.22;43.70;100237.53;5054600;28;8830;-64
2022/05/28 10:34:34;;;;;;;;;0.00;0.00;;;;;20.56;43.20;100238.00;5053959;28;9859;-64
2022/05/28 10:37:02;;;;;;;;;0.00;0.00;;;;;21.21;42.07;100232.00;5054475;28;8838;-64
2022/05/28 10:39:30;;;;;;;;;0.00;0.00;;;;;21.95;40.76;100223.78;5054604;28;8862;-64
2022/05/28 10:41:58;;;;;;;;;1.00;1.00;;;;;22.52;40.12;100229.34;5054492;28;8969;-65
2022/05/28 10:44:25;;;;;;;;;1.00;1.00;;;;;23.09;39.34;100217.44;5054116;28;8870;-64
2022/05/28 10:46:53;;;;;;;;;0.00;0.00;;;;;23.45;39.10;100215.44;5054392;28;8955;-64
2022/05/28 10:49:21;;;;;;;;;1.00;1.00;;;;;23.18;39.55;100221.72;5054729;28;8957;-65
2022/05/28 10:51:49;;;;;;;;;1.00;1.00;;;;;22.70;39.90;100214.28;5054194;28;8854;-66
2022/05/28 10:54:16;;;;;;;;;0.60;0.60;;;;;22.37;40.17;100223.91;5054553;28;8961;-65
2022/05/28 10:56:44;;;;;;;;;0.20;0.20;;;;;21.63;41.61;100217.88;5054493;28;8981;-64
2022/05/28 10:59:12;;;;;;;;;0.20;0.20;;;;;20.94;42.84;100224.41;5040538;28;8824;-64
2022/05/28 11:01:41;;;;;;;;;0.00;0.00;;;;;20.33;43.56;100228.19;5034076;28;8836;-64
2022/05/28 11:04:09;;;;;;;;;0.60;0.60;;;;;19.80;44.68;100226.16;5033529;28;8871;-64
2022/05/28 11:06:37;;;;;;;;;1.00;0.20;;;;;19.57;44.72;100227.06;5033318;28;8840;-64
2022/05/28 11:09:04;;;;;;;;;0.00;0.00;;;;;20.15;43.71;100222.16;5033056;28;8853;-64
2022/05/28 11:11:33;;;;;;;;;0.20;0.00;;;;;20.87;42.56;100222.63;5033348;28;8840;-64
2022/05/28 11:14:01;;;;;;;;;1.00;1.00;;;;;21.76;40.88;100209.94;5033187;28;8866;-67
2022/05/28 11:16:29;;;;;;;;;0.00;0.00;;;;;22.58;39.46;100218.56;5035588;28;8844;-65
2022/05/28 11:18:57;;;;;;;;;0.60;0.20;;;;;23.36;38.90;100207.66;5037654;28;9478;-65
2022/05/28 11:21:31;;;;;;;;;0.40;0.40;;;;;24.21;37.78;100203.59;5037279;28;8990;-64
2022/05/28 11:23:58;;;;;;;;;0.00;0.00;;;;;24.65;37.21;100199.38;5037840;28;8836;-65
2022/05/28 11:26:26;;;;;;;;;0.00;0.00;;;;;23.98;38.04;100200.34;5036275;28;8869;-67
2022/05/28 11:28:54;;;;;;;;;0.20;0.00;;;;;23.22;39.01;100197.72;5049829;28;8834;-65
2022/05/28 11:31:21;;;;;;;;;0.00;0.00;;;;;22.92;39.46;100196.97;5057637;28;8853;-64
2022/05/28 11:33:49;;;;;;;;;0.40;0.00;;;;;23.50;38.90;100203.97;5057639;28;8826;-64
2022/05/28 11:36:17;;;;;;;;;0.60;0.60;;;;;23.24;38.57;100204.63;5057653;28;8834;-64
2022/05/28 11:38:45;;;;;;;;;1.00;0.00;;;;;22.42;39.63;100201.66;5057560;28;8864;-64
2022/05/28 11:41:12;;;;;;;;;0.00;0.00;;;;;21.63;41.33;100205.13;5057486;28;8856;-65